createdAt,value
2019-05-03T00:00:09.441Z,8.00
2019-05-03T00:01:09.471Z,8.00
2019-05-03T00:02:09.427Z,8.00
2019-05-03T00:03:09.424Z,8.00
2019-05-03T00:04:09.483Z,8.00
2019-05-03T00:05:09.481Z,8.00
2019-05-03T00:06:09.412Z,8.00
2019-05-03T00:07:09.416Z,8.00
2019-05-03T00:08:09.406Z,8.00
2019-05-03T00:09:09.451Z,8.00
2019-05-03T00:10:09.447Z,8.00
2019-05-03T00:11:09.388Z,8.00
2019-05-03T00:12:09.386Z,8.00
2019-05-03T00:13:09.379Z,8.00
2019-05-03T00:14:09.388Z,8.00
2019-05-03T00:15:09.375Z,8.00
2019-05-03T00:16:09.662Z,8.00
2019-05-03T00:17:09.409Z,8.00
2019-05-03T00:18:09.362Z,8.00
2019-05-03T00:19:09.356Z,8.00
2019-05-03T00:20:09.351Z,8.00
2019-05-03T00:21:09.364Z,8.00
2019-05-03T00:22:09.345Z,8.00
2019-05-03T00:23:09.379Z,8.00
2019-05-03T00:24:09.335Z,8.00
2019-05-03T00:25:09.373Z,8.00
2019-05-03T00:26:09.331Z,8.00
2019-05-03T00:27:09.321Z,8.00
2019-05-03T00:28:09.369Z,8.00
2019-05-03T00:29:09.361Z,8.00
2019-05-03T00:30:09.325Z,8.00
2019-05-03T00:31:09.311Z,8.00
2019-05-03T00:32:09.300Z,8.00
2019-05-03T00:33:09.290Z,8.00
2019-05-03T00:34:09.290Z,8.00
2019-05-03T00:35:09.285Z,8.00
2019-05-03T00:36:09.281Z,8.00
2019-05-03T00:37:09.272Z,8.00
2019-05-03T00:38:09.296Z,8.00
2019-05-03T00:39:09.268Z,8.00
2019-05-03T00:40:09.264Z,8.00
2019-05-03T00:41:09.259Z,8.00
2019-05-03T00:42:09.274Z,8.00
2019-05-03T00:43:09.252Z,8.00
2019-05-03T00:44:09.307Z,8.00
2019-05-03T00:45:09.340Z,8.00
2019-05-03T00:46:09.254Z,8.00
2019-05-03T00:47:09.232Z,8.00
2019-05-03T00:48:09.247Z,8.00
2019-05-03T00:49:09.230Z,8.00
2019-05-03T00:50:09.226Z,8.00
2019-05-03T00:51:09.221Z,8.00
2019-05-03T00:52:09.219Z,8.00
2019-05-03T00:53:09.218Z,8.00
2019-05-03T00:54:09.243Z,8.00
2019-05-03T00:55:16.057Z,8.00
2019-05-03T00:56:09.193Z,8.00
2019-05-03T00:57:09.186Z,8.00
2019-05-03T00:58:09.186Z,8.00
2019-05-03T00:59:09.190Z,8.00
2019-05-03T01:00:09.181Z,8.00
2019-05-03T01:01:09.186Z,8.00
2019-05-03T01:02:09.168Z,8.00
2019-05-03T01:03:09.163Z,8.00
2019-05-03T01:04:09.375Z,8.00
2019-05-03T01:05:09.155Z,8.00
2019-05-03T01:06:09.187Z,8.00
2019-05-03T01:07:09.148Z,8.00
2019-05-03T01:08:09.145Z,8.00
2019-05-03T01:09:09.138Z,8.00
2019-05-03T01:10:09.147Z,8.00
2019-05-03T01:11:09.133Z,8.00
2019-05-03T01:12:09.128Z,8.00
2019-05-03T01:13:09.120Z,8.00
2019-05-03T01:14:09.116Z,8.00
2019-05-03T01:15:09.114Z,8.00
2019-05-03T01:16:09.110Z,8.00
2019-05-03T01:17:09.104Z,8.00
2019-05-03T01:18:09.101Z,8.00
2019-05-03T01:19:09.098Z,8.00
2019-05-03T01:20:09.093Z,8.00
2019-05-03T01:21:09.090Z,8.00
2019-05-03T01:22:09.084Z,8.00
2019-05-03T01:23:09.079Z,8.00
2019-05-03T01:24:09.079Z,8.00
2019-05-03T01:25:09.075Z,8.00
2019-05-03T01:26:09.066Z,8.00
2019-05-03T01:27:09.062Z,8.00
2019-05-03T01:28:09.069Z,8.00
2019-05-03T01:29:09.064Z,8.00
2019-05-03T01:30:09.054Z,8.00
2019-05-03T01:31:09.044Z,8.00
2019-05-03T01:32:09.040Z,8.00
2019-05-03T01:33:09.038Z,8.00
2019-05-03T01:34:09.037Z,8.00
2019-05-03T01:35:09.029Z,8.00
2019-05-03T01:36:09.026Z,8.00
2019-05-03T01:37:09.018Z,8.00
2019-05-03T01:38:09.016Z,8.00
2019-05-03T01:39:09.013Z,8.00
2019-05-03T01:40:09.005Z,8.00
2019-05-03T01:41:09.002Z,8.00
2019-05-03T01:42:08.998Z,8.00
2019-05-03T01:43:09.274Z,8.00
2019-05-03T01:44:08.995Z,8.00
2019-05-03T01:45:08.982Z,8.00
2019-05-03T01:46:08.979Z,8.00
2019-05-03T01:47:11.536Z,8.00
2019-05-03T01:48:09.060Z,8.00
2019-05-03T01:49:09.879Z,8.00
2019-05-03T01:50:09.008Z,8.00
2019-05-03T01:51:09.010Z,8.00
2019-05-03T01:52:08.955Z,8.00
2019-05-03T01:53:08.963Z,8.00
2019-05-03T01:54:08.946Z,8.00
2019-05-03T01:55:13.158Z,8.00
2019-05-03T01:56:08.947Z,8.00
2019-05-03T01:57:09.224Z,8.00
2019-05-03T01:58:08.930Z,8.00
2019-05-03T01:59:08.923Z,8.00
2019-05-03T02:00:08.939Z,8.00
2019-05-03T02:01:08.972Z,8.00
2019-05-03T02:02:08.911Z,8.00
2019-05-03T02:03:08.908Z,8.00
2019-05-03T02:04:08.911Z,8.00
2019-05-03T02:05:08.902Z,8.00
2019-05-03T02:06:08.895Z,8.00
2019-05-03T02:07:08.890Z,8.00
2019-05-03T02:08:09.009Z,8.00
2019-05-03T02:09:08.894Z,8.00
2019-05-03T02:10:08.880Z,8.00
2019-05-03T02:11:08.871Z,8.00
2019-05-03T02:12:08.871Z,8.00
2019-05-03T02:13:08.864Z,8.00
2019-05-03T02:14:08.861Z,8.00
2019-05-03T02:15:08.859Z,8.00
2019-05-03T02:16:08.853Z,8.00
2019-05-03T02:17:08.843Z,8.00
2019-05-03T02:18:08.842Z,8.00
2019-05-03T02:19:08.843Z,8.00
2019-05-03T02:20:08.830Z,8.00
2019-05-03T02:21:08.853Z,8.00
2019-05-03T02:22:08.823Z,8.00
2019-05-03T02:23:08.816Z,8.00
2019-05-03T02:24:08.821Z,8.00
2019-05-03T02:25:08.915Z,8.00
2019-05-03T02:26:08.887Z,8.00
2019-05-03T02:27:08.799Z,8.00
2019-05-03T02:28:09.447Z,8.00
2019-05-03T02:29:08.790Z,8.00
2019-05-03T02:30:08.831Z,8.00
2019-05-03T02:31:08.879Z,8.00
2019-05-03T02:32:08.778Z,8.00
2019-05-03T02:33:09.877Z,8.00
2019-05-03T02:34:08.767Z,8.00
2019-05-03T02:35:08.763Z,8.00
2019-05-03T02:36:08.775Z,8.00
2019-05-03T02:37:08.753Z,8.00
2019-05-03T02:38:08.759Z,8.00
2019-05-03T02:39:08.747Z,8.00
2019-05-03T02:40:08.744Z,8.00
2019-05-03T02:41:13.196Z,8.00
2019-05-03T02:42:11.617Z,8.00
2019-05-03T02:43:08.731Z,8.00
2019-05-03T02:44:08.740Z,8.00
2019-05-03T02:45:08.733Z,8.00
2019-05-03T02:46:08.732Z,8.00
2019-05-03T02:47:08.716Z,8.00
2019-05-03T02:48:08.711Z,8.00
2019-05-03T02:49:08.905Z,8.00
2019-05-03T02:50:08.753Z,8.00
2019-05-03T02:51:08.693Z,8.00
2019-05-03T02:52:09.461Z,8.00
2019-05-03T02:53:09.385Z,8.00
2019-05-03T02:54:08.693Z,8.00
2019-05-03T02:55:08.678Z,8.00
2019-05-03T02:56:18.217Z,8.00
2019-05-03T02:57:08.666Z,8.00
2019-05-03T02:58:08.674Z,8.00
2019-05-03T02:59:08.816Z,8.00
2019-05-03T03:00:08.656Z,8.00
2019-05-03T03:01:08.698Z,8.00
2019-05-03T03:02:08.641Z,8.00
2019-05-03T03:03:08.698Z,8.00
2019-05-03T03:04:08.639Z,8.00
2019-05-03T03:05:08.628Z,8.00
2019-05-03T03:06:08.624Z,8.00
2019-05-03T03:07:08.619Z,8.00
2019-05-03T03:08:08.612Z,8.00
2019-05-03T03:09:08.607Z,8.00
2019-05-03T03:10:08.604Z,8.00
2019-05-03T03:11:08.602Z,8.00
2019-05-03T03:12:08.588Z,8.00
2019-05-03T03:13:08.591Z,8.00
2019-05-03T03:14:08.590Z,8.00
2019-05-03T03:15:08.615Z,8.00
2019-05-03T03:16:08.573Z,8.00
2019-05-03T03:17:08.561Z,8.00
2019-05-03T03:18:36.735Z,8.00
2019-05-03T03:19:08.548Z,4.00
2019-05-03T03:20:08.543Z,8.00
2019-05-03T03:21:08.582Z,8.00
2019-05-03T03:22:08.531Z,8.00
2019-05-03T03:23:08.567Z,8.00
2019-05-03T03:24:08.517Z,8.00
2019-05-03T03:25:08.510Z,8.00
2019-05-03T03:26:08.504Z,8.00
2019-05-03T03:27:08.499Z,8.00
2019-05-03T03:28:08.493Z,8.00
2019-05-03T03:29:08.486Z,8.00
2019-05-03T03:30:08.805Z,12.00
2019-05-03T03:31:08.864Z,8.00
2019-05-03T03:32:09.798Z,8.00
2019-05-03T03:33:09.343Z,8.00
2019-05-03T03:34:08.780Z,12.00
2019-05-03T03:35:12.049Z,12.00
2019-05-03T03:36:42.175Z,12.00
2019-05-03T03:37:10.336Z,12.00
2019-05-03T03:38:08.436Z,12.00
2019-05-03T03:39:08.472Z,12.00
2019-05-03T03:40:08.475Z,12.00
2019-05-03T03:41:08.415Z,12.00
2019-05-03T03:42:08.406Z,12.00
2019-05-03T03:43:08.402Z,16.00
2019-05-03T03:44:08.432Z,12.00
2019-05-03T03:45:08.393Z,12.00
2019-05-03T03:46:08.383Z,12.00
2019-05-03T03:47:08.383Z,12.00
2019-05-03T03:48:08.373Z,12.00
2019-05-03T03:49:09.392Z,12.00
2019-05-03T03:50:08.358Z,12.00
2019-05-03T03:51:08.362Z,8.00
2019-05-03T03:52:08.349Z,12.00
2019-05-03T03:53:08.342Z,12.00
2019-05-03T03:54:08.335Z,16.00
2019-05-03T03:55:08.339Z,24.00
2019-05-03T03:56:08.604Z,24.00
2019-05-03T03:57:08.603Z,24.00
2019-05-03T03:58:08.309Z,28.00
2019-05-03T03:59:08.498Z,28.00
2019-05-03T04:00:08.304Z,28.00
2019-05-03T04:01:08.592Z,28.00
2019-05-03T04:02:08.298Z,32.00
2019-05-03T04:03:08.281Z,32.00
2019-05-03T04:04:08.397Z,32.00
2019-05-03T04:05:08.266Z,36.00
2019-05-03T04:06:08.573Z,40.00
2019-05-03T04:07:08.258Z,40.00
2019-05-03T04:08:09.071Z,44.00
2019-05-03T04:09:08.496Z,48.00
2019-05-03T04:10:08.494Z,48.00
2019-05-03T04:11:08.237Z,52.00
2019-05-03T04:12:08.225Z,64.00
2019-05-03T04:13:08.225Z,64.00
2019-05-03T04:14:09.056Z,72.00
2019-05-03T04:15:08.203Z,84.00
2019-05-03T04:16:08.194Z,84.00
2019-05-03T04:17:08.190Z,80.00
2019-05-03T04:18:08.351Z,100.00
2019-05-03T04:19:08.193Z,120.00
2019-05-03T04:20:08.183Z,108.00
2019-05-03T04:21:08.167Z,92.00
2019-05-03T04:22:08.163Z,104.00
2019-05-03T04:23:08.172Z,108.00
2019-05-03T04:24:08.150Z,116.00
2019-05-03T04:25:08.330Z,124.00
2019-05-03T04:26:08.155Z,124.00
2019-05-03T04:27:18.437Z,128.00
2019-05-03T04:28:08.126Z,136.00
2019-05-03T04:29:08.120Z,120.00
2019-05-03T04:30:08.111Z,104.00
2019-05-03T04:31:08.113Z,104.00
2019-05-03T04:32:08.156Z,100.00
2019-05-03T04:33:08.094Z,84.00
2019-05-03T04:34:08.085Z,84.00
2019-05-03T04:35:08.085Z,96.00
2019-05-03T04:36:08.077Z,112.00
2019-05-03T04:37:08.078Z,100.00
2019-05-03T04:38:08.075Z,84.00
2019-05-03T04:39:08.077Z,92.00
2019-05-03T04:40:08.055Z,120.00
2019-05-03T04:41:08.043Z,144.00
2019-05-03T04:42:08.070Z,140.00
2019-05-03T04:43:08.035Z,176.00
2019-05-03T04:44:08.046Z,220.00
2019-05-03T04:45:08.026Z,236.00
2019-05-03T04:46:08.016Z,264.00
2019-05-03T04:47:08.014Z,288.00
2019-05-03T04:48:08.005Z,292.00
2019-05-03T04:49:07.999Z,256.00
2019-05-03T04:50:07.994Z,224.00
2019-05-03T04:51:08.015Z,216.00
2019-05-03T04:52:07.982Z,172.00
2019-05-03T04:53:07.972Z,128.00
2019-05-03T04:54:07.968Z,124.00
2019-05-03T04:55:07.965Z,128.00
2019-05-03T04:56:07.963Z,120.00
2019-05-03T04:57:07.977Z,108.00
2019-05-03T04:58:07.962Z,116.00
2019-05-03T04:59:07.941Z,128.00
2019-05-03T05:00:11.248Z,144.00
2019-05-03T05:01:07.933Z,168.00
2019-05-03T05:02:07.926Z,184.00
2019-05-03T05:03:07.935Z,220.00
2019-05-03T05:04:07.919Z,232.00
2019-05-03T05:05:07.914Z,236.00
2019-05-03T05:06:07.902Z,264.00
2019-05-03T05:07:07.894Z,236.00
2019-05-03T05:08:07.886Z,188.00
2019-05-03T05:09:07.884Z,176.00
2019-05-03T05:10:07.878Z,168.00
2019-05-03T05:11:10.447Z,176.00
2019-05-03T05:12:07.869Z,196.00
2019-05-03T05:13:07.854Z,196.00
2019-05-03T05:14:07.849Z,200.00
2019-05-03T05:15:07.843Z,216.00
2019-05-03T05:16:07.836Z,280.00
2019-05-03T05:17:07.833Z,348.00
2019-05-03T05:18:07.866Z,404.00
2019-05-03T05:19:07.821Z,400.00
2019-05-03T05:20:07.812Z,340.00
2019-05-03T05:21:07.810Z,312.00
2019-05-03T05:22:07.799Z,308.00
2019-05-03T05:23:07.793Z,300.00
2019-05-03T05:24:07.787Z,280.00
2019-05-03T05:25:07.779Z,256.00
2019-05-03T05:26:07.775Z,244.00
2019-05-03T05:27:07.767Z,244.00
2019-05-03T05:28:07.796Z,252.00
2019-05-03T05:29:07.758Z,272.00
2019-05-03T05:30:07.756Z,284.00
2019-05-03T05:31:07.741Z,288.00
2019-05-03T05:32:07.741Z,304.00
2019-05-03T05:33:07.730Z,316.00
2019-05-03T05:34:08.829Z,340.00
2019-05-03T05:35:07.716Z,356.00
2019-05-03T05:36:07.712Z,372.00
2019-05-03T05:37:07.714Z,408.00
2019-05-03T05:38:07.699Z,384.00
2019-05-03T05:39:07.694Z,356.00
2019-05-03T05:40:07.690Z,296.00
2019-05-03T05:41:07.764Z,248.00
2019-05-03T05:42:07.674Z,232.00
2019-05-03T05:43:07.667Z,248.00
2019-05-03T05:44:07.661Z,280.00
2019-05-03T05:45:07.656Z,284.00
2019-05-03T05:46:07.647Z,280.00
2019-05-03T05:47:07.642Z,300.00
2019-05-03T05:48:07.640Z,296.00
2019-05-03T05:49:07.629Z,288.00
2019-05-03T05:50:07.660Z,304.00
2019-05-03T05:51:07.617Z,324.00
2019-05-03T05:52:07.614Z,324.00
2019-05-03T05:53:07.604Z,292.00
2019-05-03T05:54:07.593Z,260.00
2019-05-03T05:55:07.597Z,240.00
2019-05-03T05:56:07.585Z,248.00
2019-05-03T05:57:08.479Z,244.00
2019-05-03T05:58:08.323Z,244.00
2019-05-03T05:59:07.565Z,252.00
2019-05-03T06:00:07.579Z,260.00
2019-05-03T06:01:07.549Z,296.00
2019-05-03T06:02:07.544Z,308.00
2019-05-03T06:03:07.536Z,332.00
2019-05-03T06:04:09.950Z,332.00
2019-05-03T06:05:08.444Z,328.00
2019-05-03T06:06:07.566Z,316.00
2019-05-03T06:07:07.512Z,308.00
2019-05-03T06:08:07.505Z,296.00
2019-05-03T06:09:07.534Z,288.00
2019-05-03T06:10:07.490Z,288.00
2019-05-03T06:11:07.485Z,296.00
2019-05-03T06:12:07.475Z,292.00
2019-05-03T06:13:07.477Z,300.00
2019-05-03T06:14:07.461Z,328.00
2019-05-03T06:15:07.457Z,348.00
2019-05-03T06:16:07.452Z,392.00
2019-05-03T06:17:07.452Z,464.00
2019-05-03T06:18:07.436Z,620.00
2019-05-03T06:19:07.430Z,788.00
2019-05-03T06:20:07.476Z,788.00
2019-05-03T06:21:07.417Z,572.00
2019-05-03T06:22:07.410Z,484.00
2019-05-03T06:23:07.407Z,516.00
2019-05-03T06:24:07.400Z,556.00
2019-05-03T06:25:07.395Z,652.00
2019-05-03T06:26:07.386Z,796.00
2019-05-03T06:27:07.377Z,868.00
2019-05-03T06:28:17.713Z,888.00
2019-05-03T06:29:07.365Z,916.00
2019-05-03T06:30:07.358Z,1012.00
2019-05-03T06:31:07.358Z,1164.00
2019-05-03T06:32:07.348Z,1180.00
2019-05-03T06:33:07.340Z,1128.00
2019-05-03T06:34:07.338Z,1120.00
2019-05-03T06:35:07.329Z,1128.00
2019-05-03T06:36:07.332Z,1108.00
2019-05-03T06:37:07.315Z,1104.00
2019-05-03T06:38:07.308Z,1108.00
2019-05-03T06:39:08.407Z,1120.00
2019-05-03T06:40:07.299Z,1104.00
2019-05-03T06:41:07.288Z,1080.00
2019-05-03T06:42:10.091Z,1020.00
2019-05-03T06:43:09.764Z,976.00
2019-05-03T06:44:07.274Z,1012.00
2019-05-03T06:45:11.256Z,1060.00
2019-05-03T06:46:07.258Z,1100.00
2019-05-03T06:47:10.430Z,1180.00
2019-05-03T06:48:07.266Z,1256.00
2019-05-03T06:49:10.053Z,1292.00
2019-05-03T06:50:07.238Z,1248.00
2019-05-03T06:51:10.975Z,1204.00
2019-05-03T06:52:07.221Z,1244.00
2019-05-03T06:53:12.584Z,1332.00
2019-05-03T06:54:07.222Z,1396.00
2019-05-03T06:55:10.468Z,1396.00
2019-05-03T06:56:07.199Z,1316.00
2019-05-03T06:57:09.524Z,1216.00
2019-05-03T06:58:07.222Z,1172.00
2019-05-03T06:59:07.179Z,1176.00
2019-05-03T07:00:07.173Z,1216.00
2019-05-03T07:01:07.167Z,1256.00
2019-05-03T07:02:07.160Z,1260.00
2019-05-03T07:03:07.156Z,1248.00
2019-05-03T07:04:07.284Z,1240.00
2019-05-03T07:05:07.139Z,1204.00
2019-05-03T07:06:07.135Z,1160.00
2019-05-03T07:07:07.131Z,1128.00
2019-05-03T07:08:07.123Z,1104.00
2019-05-03T07:09:07.125Z,1076.00
2019-05-03T07:10:07.113Z,1084.00
2019-05-03T07:11:07.126Z,1036.00
2019-05-03T07:12:07.097Z,1024.00
2019-05-03T07:13:08.930Z,1020.00
2019-05-03T07:14:07.087Z,1008.00
2019-05-03T07:15:07.089Z,1016.00
2019-05-03T07:16:07.077Z,1028.00
2019-05-03T07:17:07.068Z,1036.00
2019-05-03T07:18:07.065Z,1072.00
2019-05-03T07:19:07.062Z,1124.00
2019-05-03T07:20:07.052Z,1164.00
2019-05-03T07:21:07.046Z,1204.00
2019-05-03T07:22:07.038Z,1240.00
2019-05-03T07:23:07.038Z,1276.00
2019-05-03T07:24:07.030Z,1304.00
2019-05-03T07:25:07.020Z,1304.00
2019-05-03T07:26:07.037Z,1300.00
2019-05-03T07:27:07.010Z,1324.00
2019-05-03T07:28:07.007Z,1356.00
2019-05-03T07:29:06.999Z,1368.00
2019-05-03T07:30:06.992Z,1392.00
2019-05-03T07:31:06.988Z,1424.00
2019-05-03T07:32:06.979Z,1436.00
2019-05-03T07:33:07.065Z,1460.00
2019-05-03T07:34:06.971Z,1488.00
2019-05-03T07:35:06.963Z,1580.00
2019-05-03T07:36:06.958Z,1656.00
2019-05-03T07:37:06.951Z,1684.00
2019-05-03T07:38:06.945Z,1664.00
2019-05-03T07:39:06.955Z,1604.00
2019-05-03T07:40:06.933Z,1556.00
2019-05-03T07:41:06.928Z,1568.00
2019-05-03T07:42:06.918Z,1580.00
2019-05-03T07:43:06.916Z,1556.00
2019-05-03T07:44:06.909Z,1512.00
2019-05-03T07:45:06.902Z,1480.00
2019-05-03T07:46:06.895Z,1464.00
2019-05-03T07:47:06.889Z,1448.00
2019-05-03T07:48:06.892Z,1416.00
2019-05-03T07:49:06.886Z,1412.00
2019-05-03T07:50:06.991Z,1420.00
2019-05-03T07:51:06.869Z,1428.00
2019-05-03T07:52:06.872Z,1448.00
2019-05-03T07:53:06.855Z,1472.00
2019-05-03T07:54:06.850Z,1484.00
2019-05-03T07:55:06.847Z,1496.00
2019-05-03T07:56:06.836Z,1532.00
2019-05-03T07:57:06.831Z,1604.00
2019-05-03T07:58:06.827Z,1712.00
2019-05-03T07:59:06.821Z,1780.00
2019-05-03T08:00:06.815Z,1892.00
2019-05-03T08:01:09.806Z,2000.00
2019-05-03T08:02:06.804Z,2064.00
2019-05-03T08:03:06.803Z,2152.00
2019-05-03T08:04:06.793Z,2304.00
2019-05-03T08:05:06.802Z,2492.00
2019-05-03T08:06:06.936Z,2684.00
2019-05-03T08:07:19.337Z,2840.00
2019-05-03T08:08:07.061Z,2988.00
2019-05-03T08:09:06.777Z,3088.00
2019-05-03T08:10:07.060Z,3164.00
2019-05-03T08:11:06.753Z,3272.00
2019-05-03T08:12:06.749Z,3368.00
2019-05-03T08:13:06.747Z,3356.00
2019-05-03T08:14:06.737Z,3272.00
2019-05-03T08:15:06.734Z,3220.00
2019-05-03T08:16:06.729Z,3316.00
2019-05-03T08:17:06.727Z,3420.00
2019-05-03T08:18:06.817Z,3484.00
2019-05-03T08:19:06.719Z,3404.00
2019-05-03T08:20:06.708Z,3660.00
2019-05-03T08:21:06.711Z,3768.00
2019-05-03T08:22:06.696Z,3940.00
2019-05-03T08:23:06.693Z,4092.00
2019-05-03T08:24:06.696Z,4156.00
2019-05-03T08:25:06.682Z,4112.00
2019-05-03T08:26:06.683Z,4172.00
2019-05-03T08:27:06.672Z,4260.00
2019-05-03T08:28:06.673Z,4396.00
2019-05-03T08:29:15.259Z,4548.00
2019-05-03T08:30:06.661Z,4708.00
2019-05-03T08:31:06.654Z,4844.00
2019-05-03T08:32:06.646Z,4540.00
2019-05-03T08:33:06.642Z,4368.00
2019-05-03T08:34:06.641Z,4692.00
2019-05-03T08:35:06.632Z,4940.00
2019-05-03T08:36:06.630Z,4856.00
2019-05-03T08:37:06.628Z,4728.00
2019-05-03T08:38:06.621Z,4444.00
2019-05-03T08:39:06.618Z,4068.00
2019-05-03T08:40:06.900Z,4076.00
2019-05-03T08:41:06.608Z,4208.00
2019-05-03T08:42:06.600Z,4500.00
2019-05-03T08:43:06.650Z,4640.00
2019-05-03T08:44:06.682Z,4868.00
2019-05-03T08:45:08.118Z,4924.00
2019-05-03T08:46:06.606Z,4992.00
2019-05-03T08:47:06.578Z,5096.00
2019-05-03T08:48:06.618Z,5196.00
2019-05-03T08:49:06.612Z,5108.00
2019-05-03T08:50:06.567Z,5016.00
2019-05-03T08:51:06.932Z,5024.00
2019-05-03T08:52:06.558Z,5064.00
2019-05-03T08:53:06.565Z,5200.00
2019-05-03T08:54:06.549Z,5208.00
2019-05-03T08:55:06.547Z,5232.00
2019-05-03T08:56:06.542Z,4944.00
2019-05-03T08:57:07.475Z,4948.00
2019-05-03T08:58:07.485Z,4832.00
2019-05-03T08:59:06.539Z,4512.00
2019-05-03T09:00:06.549Z,4580.00
2019-05-03T09:01:06.532Z,4684.00
2019-05-03T09:02:14.059Z,4632.00
2019-05-03T09:03:06.516Z,4692.00
2019-05-03T09:04:06.514Z,5096.00
2019-05-03T09:05:06.507Z,5432.00
2019-05-03T09:06:06.518Z,5548.00
2019-05-03T09:07:06.558Z,6260.00
2019-05-03T09:08:06.503Z,5368.00
2019-05-03T09:09:06.498Z,5712.00
2019-05-03T09:10:06.493Z,8116.00
2019-05-03T09:11:06.493Z,6520.00
2019-05-03T09:12:06.488Z,5424.00
2019-05-03T09:13:06.757Z,5928.00
2019-05-03T09:14:06.477Z,5108.00
2019-05-03T09:15:06.478Z,7864.00
2019-05-03T09:16:06.509Z,4636.00
2019-05-03T09:17:06.470Z,4512.00
2019-05-03T09:18:06.470Z,4096.00
2019-05-03T09:19:06.468Z,4448.00
2019-05-03T09:20:06.467Z,5060.00
2019-05-03T09:21:06.635Z,5548.00
2019-05-03T09:22:06.461Z,8500.00
2019-05-03T09:23:06.466Z,4876.00
2019-05-03T09:24:06.463Z,4908.00
2019-05-03T09:25:06.463Z,5136.00
2019-05-03T09:26:06.486Z,6156.00
2019-05-03T09:27:06.457Z,5000.00
2019-05-03T09:28:06.450Z,5080.00
2019-05-03T09:29:06.448Z,5188.00
2019-05-03T09:30:06.451Z,5340.00
2019-05-03T09:31:06.456Z,5560.00
2019-05-03T09:32:06.438Z,5320.00
2019-05-03T09:33:09.072Z,4764.00
2019-05-03T09:34:08.287Z,4784.00
2019-05-03T09:35:06.439Z,5044.00
2019-05-03T09:36:06.436Z,5528.00
2019-05-03T09:37:06.432Z,5412.00
2019-05-03T09:38:06.433Z,4976.00
2019-05-03T09:39:06.431Z,4100.00
2019-05-03T09:40:06.443Z,4196.00
2019-05-03T09:41:06.439Z,4656.00
2019-05-03T09:42:06.425Z,5300.00
2019-05-03T09:43:06.425Z,5384.00
2019-05-03T09:44:06.461Z,5844.00
2019-05-03T09:45:06.416Z,5892.00
2019-05-03T09:46:06.432Z,5272.00
2019-05-03T09:47:06.437Z,5216.00
2019-05-03T09:48:06.411Z,5400.00
2019-05-03T09:49:13.405Z,5588.00
2019-05-03T09:50:06.407Z,5288.00
2019-05-03T09:51:06.406Z,5192.00
2019-05-03T09:52:08.405Z,5504.00
2019-05-03T09:53:08.854Z,5876.00
2019-05-03T09:54:06.406Z,5660.00
2019-05-03T09:55:06.712Z,5288.00
2019-05-03T09:56:06.393Z,5228.00
2019-05-03T09:57:06.428Z,5468.00
2019-05-03T09:58:06.399Z,6160.00
2019-05-03T09:59:06.548Z,6384.00
2019-05-03T10:00:06.385Z,6204.00
2019-05-03T10:01:08.578Z,5572.00
2019-05-03T10:02:06.380Z,5364.00
2019-05-03T10:03:06.381Z,5140.00
2019-05-03T10:04:06.410Z,5064.00
2019-05-03T10:05:06.963Z,5332.00
2019-05-03T10:06:06.611Z,5672.00
2019-05-03T10:07:06.368Z,6156.00
2019-05-03T10:08:06.369Z,6600.00
2019-05-03T10:09:06.559Z,6576.00
2019-05-03T10:10:06.361Z,6624.00
2019-05-03T10:11:06.360Z,6456.00
2019-05-03T10:12:06.378Z,6088.00
2019-05-03T10:13:14.439Z,5720.00
2019-05-03T10:14:06.376Z,5892.00
2019-05-03T10:15:06.593Z,5696.00
2019-05-03T10:16:06.383Z,5500.00
2019-05-03T10:17:06.358Z,5480.00
2019-05-03T10:18:10.839Z,5204.00
2019-05-03T10:19:06.342Z,5268.00
2019-05-03T10:20:06.359Z,5500.00
2019-05-03T10:21:06.336Z,5668.00
2019-05-03T10:22:06.341Z,5764.00
2019-05-03T10:23:06.443Z,5040.00
2019-05-03T10:24:06.756Z,5064.00
2019-05-03T10:25:06.328Z,5124.00
2019-05-03T10:26:06.339Z,5124.00
2019-05-03T10:27:07.095Z,5052.00
2019-05-03T10:28:06.325Z,4944.00
2019-05-03T10:29:06.323Z,5016.00
2019-05-03T10:30:12.473Z,5052.00
2019-05-03T10:31:07.758Z,8976.00
2019-05-03T10:32:06.317Z,3208.00
2019-05-03T10:33:06.327Z,2704.00
2019-05-03T10:34:06.402Z,2380.00
2019-05-03T10:35:06.309Z,2184.00
2019-05-03T10:36:06.308Z,2068.00
2019-05-03T10:37:06.308Z,1960.00
2019-05-03T10:38:06.300Z,1940.00
2019-05-03T10:39:06.335Z,2060.00
2019-05-03T10:40:08.111Z,2344.00
2019-05-03T10:41:06.295Z,2788.00
2019-05-03T10:42:06.369Z,3332.00
2019-05-03T10:43:06.298Z,3872.00
2019-05-03T10:44:06.288Z,4320.00
2019-05-03T10:45:06.285Z,16160.00
2019-05-03T10:46:06.280Z,4424.00
2019-05-03T10:47:06.287Z,4464.00
2019-05-03T10:48:06.308Z,4264.00
2019-05-03T10:49:06.273Z,3268.00
2019-05-03T10:50:06.274Z,2780.00
2019-05-03T10:51:06.280Z,2548.00
2019-05-03T10:52:06.275Z,2396.00
2019-05-03T10:53:06.261Z,2196.00
2019-05-03T10:54:06.268Z,1972.00
2019-05-03T10:55:06.256Z,1740.00
2019-05-03T10:56:06.254Z,1560.00
2019-05-03T10:57:06.255Z,1512.00
2019-05-03T10:58:06.247Z,1564.00
2019-05-03T10:59:06.469Z,1784.00
2019-05-03T11:00:06.243Z,2076.00
2019-05-03T11:01:06.244Z,2356.00
2019-05-03T11:02:06.235Z,2464.00
2019-05-03T11:03:06.234Z,2664.00
2019-05-03T11:04:06.229Z,2972.00
2019-05-03T11:05:06.224Z,3092.00
2019-05-03T11:06:06.221Z,2868.00
2019-05-03T11:07:06.224Z,2544.00
2019-05-03T11:08:06.217Z,2308.00
2019-05-03T11:09:06.211Z,2164.00
2019-05-03T11:10:06.221Z,2064.00
2019-05-03T11:11:06.213Z,2016.00
2019-05-03T11:12:06.209Z,2140.00
2019-05-03T11:13:06.241Z,2368.00
2019-05-03T11:14:06.226Z,2612.00
2019-05-03T11:15:06.194Z,2736.00
2019-05-03T11:16:06.192Z,2708.00
2019-05-03T11:17:06.187Z,2668.00
2019-05-03T11:18:06.183Z,2792.00
2019-05-03T11:19:06.179Z,2904.00
2019-05-03T11:20:06.176Z,2784.00
2019-05-03T11:21:06.177Z,2544.00
2019-05-03T11:22:06.180Z,2348.00
2019-05-03T11:23:06.234Z,2284.00
2019-05-03T11:24:06.162Z,2280.00
2019-05-03T11:25:06.157Z,2364.00
2019-05-03T11:26:06.157Z,2568.00
2019-05-03T11:27:06.153Z,2824.00
2019-05-03T11:28:06.152Z,3084.00
2019-05-03T11:29:06.143Z,3336.00
2019-05-03T11:30:06.140Z,3512.00
2019-05-03T11:31:06.173Z,3600.00
2019-05-03T11:32:09.637Z,3632.00
2019-05-03T11:33:06.132Z,3700.00
2019-05-03T11:34:06.295Z,3784.00
2019-05-03T11:35:07.002Z,3872.00
2019-05-03T11:36:06.225Z,3960.00
2019-05-03T11:37:06.107Z,3848.00
2019-05-03T11:38:06.134Z,3504.00
2019-05-03T11:39:06.105Z,3060.00
2019-05-03T11:40:06.110Z,2876.00
2019-05-03T11:41:06.127Z,2980.00
2019-05-03T11:42:06.095Z,3112.00
2019-05-03T11:43:06.092Z,3104.00
2019-05-03T11:44:06.141Z,3012.00
2019-05-03T11:45:06.083Z,2936.00
2019-05-03T11:46:06.082Z,2968.00
2019-05-03T11:47:06.078Z,3040.00
2019-05-03T11:48:06.075Z,2984.00
2019-05-03T11:49:06.080Z,2940.00
2019-05-03T11:51:39.182Z,3540.00
2019-05-03T11:52:39.150Z,4140.00
2019-05-03T11:54:35.733Z,4908.00
2019-05-03T11:55:35.225Z,4976.00
2019-05-03T11:57:27.872Z,4384.00
2019-05-03T11:58:27.857Z,4400.00
2019-05-03T12:00:22.272Z,5120.00
2019-05-03T12:01:22.232Z,5476.00
2019-05-03T12:03:16.670Z,6040.00
2019-05-03T12:04:16.579Z,6624.00
2019-05-03T12:06:10.961Z,6856.00
2019-05-03T12:07:10.949Z,6020.00
2019-05-03T12:09:05.664Z,4928.00
2019-05-03T12:10:17.662Z,5268.00
2019-05-03T12:11:59.735Z,4300.00
2019-05-03T12:12:59.694Z,3696.00
2019-05-03T12:14:54.846Z,3124.00
2019-05-03T12:15:55.242Z,3216.00
2019-05-03T12:17:54.233Z,3904.00
2019-05-03T12:18:53.474Z,4540.00
2019-05-03T12:20:43.659Z,5920.00
2019-05-03T12:21:43.367Z,6596.00
2019-05-03T12:23:38.014Z,6160.00
2019-05-03T12:24:38.257Z,5416.00
2019-05-03T12:26:41.581Z,4808.00
2019-05-03T12:27:31.527Z,4564.00
2019-05-03T12:29:26.067Z,3900.00
2019-05-03T12:30:27.785Z,3436.00
2019-05-03T12:32:20.306Z,2940.00
2019-05-03T12:33:20.346Z,2800.00
2019-05-03T12:35:15.331Z,3144.00
2019-05-03T12:36:15.416Z,3692.00
2019-05-03T12:38:09.003Z,4432.00
2019-05-03T12:39:23.140Z,4280.00
2019-05-03T12:41:02.369Z,4088.00
2019-05-03T12:42:02.387Z,4216.00
2019-05-03T12:43:56.824Z,4748.00
2019-05-03T12:44:56.744Z,5480.00
2019-05-03T12:46:51.171Z,5400.00
2019-05-03T12:47:51.127Z,5180.00
2019-05-03T12:49:45.554Z,5548.00
2019-05-03T12:50:46.572Z,5780.00
2019-05-03T12:52:49.781Z,5784.00